Time,TemperatureF,DewpointF,PressureIn,WindDirection,WindDirectionDegrees,WindSpeedMPH,WindSpeedGustMPH,Humidity,HourlyPrecipIn,Conditions,Clouds,dailyrainin,SolarRadiationWatts/m^2,SoftwareType,DateUTC
2013-03-15 00:00:00,18.4,5.0,29.75,WNW,293,3.0,22.0,56,0.00,,,0.00,0,weatherlink.com 1.10,2013-03-15 04:00:00,
2013-03-15 00:15:00,18.3,5.0,29.75,NW,304,13.0,26.0,56,0.00,,,0.00,0,weatherlink.com 1.10,2013-03-15 04:15:00,
2013-03-15 00:30:00,18.1,5.0,29.75,West,274,12.0,20.0,57,0.00,,,0.00,0,weatherlink.com 1.10,2013-03-15 04:30:00,
2013-03-15 00:45:00,18.0,5.0,29.75,NNW,332,8.0,23.0,57,0.00,,,0.00,0,weatherlink.com 1.10,2013-03-15 04:45:00,
2013-03-15 01:00:00,17.8,5.0,29.76,WNW,296,7.0,20.0,58,0.00,,,0.00,0,weatherlink.com 1.10,2013-03-15 05:00:00,
2013-03-15 01:15:00,17.8,5.0,29.76,WNW,296,14.0,21.0,58,0.00,,,0.00,0,weatherlink.com 1.10,2013-03-15 05:15:00,
2013-03-15 01:30:00,17.8,6.0,29.76,NW,315,8.0,15.0,59,0.00,,,0.00,0,weatherlink.com 1.10,2013-03-15 05:30:00,
2013-03-15 01:45:00,17.8,5.0,29.76,NW,316,27.0,28.0,58,0.00,,,0.00,0,weatherlink.com 1.10,2013-03-15 05:45:00,
2013-03-15 02:00:00,17.8,5.0,29.77,West,269,9.0,26.0,57,0.00,,,0.00,0,weatherlink.com 1.10,2013-03-15 06:00:00,
2013-03-15 02:15:00,17.7,4.0,29.77,WNW,288,8.0,26.0,56,0.00,,,0.00,0,weatherlink.com 1.10,2013-03-15 06:15:00,
2013-03-15 02:30:00,17.5,4.0,29.76,NW,308,15.0,28.0,56,0.00,,,0.00,0,weatherlink.com 1.10,2013-03-15 06:30:00,
2013-03-15 02:45:00,17.3,3.0,29.77,WNW,296,18.0,26.0,54,0.00,,,0.00,0,weatherlink.com 1.10,2013-03-15 06:45:00,
2013-03-15 03:00:00,17.2,2.0,29.77,WNW,293,20.0,30.0,51,0.00,,,0.00,0,weatherlink.com 1.10,2013-03-15 07:00:00,
2013-03-15 03:15:00,17.0,2.0,29.77,WNW,301,15.0,27.0,51,0.00,,,0.00,0,weatherlink.com 1.10,2013-03-15 07:15:00,
2013-03-15 03:30:00,16.7,2.0,29.77,NW,309,20.0,21.0,53,0.00,,,0.00,0,weatherlink.com 1.10,2013-03-15 07:30:00,
2013-03-15 03:45:00,16.4,2.0,29.77,West,261,10.0,25.0,53,0.00,,,0.00,0,weatherlink.com 1.10,2013-03-15 07:45:00,
2013-03-15 04:00:00,16.2,2.0,29.77,WNW,290,13.0,20.0,53,0.00,,,0.00,0,weatherlink.com 1.10,2013-03-15 08:00:00,
2013-03-15 04:15:00,16.2,1.0,29.76,NW,323,7.0,22.0,51,0.00,,,0.00,0,weatherlink.com 1.10,2013-03-15 08:15:00,
2013-03-15 04:31:00,16.1,1.0,29.77,NW,318,8.0,24.0,51,0.00,,,0.00,0,weatherlink.com 1.10,2013-03-15 08:31:00,
2013-03-15 04:46:00,15.9,1.0,29.77,NW,306,5.0,21.0,51,0.00,,,0.00,0,weatherlink.com 1.10,2013-03-15 08:46:00,
2013-03-15 05:01:00,15.9,1.0,29.77,WNW,285,14.0,26.0,51,0.00,,,0.00,0,weatherlink.com 1.10,2013-03-15 09:01:00,
2013-03-15 05:16:00,15.6,1.0,29.77,WNW,293,6.0,14.0,52,0.00,,,0.00,0,weatherlink.com 1.10,2013-03-15 09:16:00,
2013-03-15 05:31:00,15.4,1.0,29.77,WNW,299,10.0,14.0,52,0.00,,,0.00,0,weatherlink.com 1.10,2013-03-15 09:31:00,
2013-03-15 05:46:00,15.4,1.0,29.77,NW,322,8.0,18.0,53,0.00,,,0.00,0,weatherlink.com 1.10,2013-03-15 09:46:00,
2013-03-15 06:01:00,15.4,1.0,29.77,WNW,294,9.0,16.0,54,0.00,,,0.00,0,weatherlink.com 1.10,2013-03-15 10:01:00,
2013-03-15 06:16:00,15.2,2.0,29.77,WNW,303,12.0,16.0,55,0.00,,,0.00,0,weatherlink.com 1.10,2013-03-15 10:16:00,
2013-03-15 06:31:00,15.2,2.0,29.77,WNW,290,10.0,14.0,55,0.00,,,0.00,0,weatherlink.com 1.10,2013-03-15 10:31:00,
2013-03-15 07:01:00,15.1,2.0,29.78,WNW,294,6.0,12.0,57,0.00,,,0.00,7,weatherlink.com 1.10,2013-03-15 11:01:00,
2013-03-15 07:16:00,14.9,2.0,29.78,WNW,286,1.0,8.0,57,0.00,,,0.00,16,weatherlink.com 1.10,2013-03-15 11:16:00,
2013-03-15 07:31:00,14.9,2.0,29.78,WNW,290,5.0,9.0,58,0.00,,,0.00,18,weatherlink.com 1.10,2013-03-15 11:31:00,
2013-03-15 08:01:00,15.6,3.0,29.78,WNW,282,10.0,13.0,58,0.00,,,0.00,63,weatherlink.com 1.10,2013-03-15 12:01:00,
2013-03-15 08:16:00,17.0,4.0,29.78,WNW,285,4.0,13.0,56,0.00,,,0.00,93,weatherlink.com 1.10,2013-03-15 12:16:00,
2013-03-15 08:31:00,18.0,4.0,29.78,West,281,7.0,19.0,54,0.00,,,0.00,65,weatherlink.com 1.10,2013-03-15 12:31:00,
2013-03-15 09:16:00,20.8,4.0,29.79,NW,324,15.0,15.0,49,0.00,,,0.00,135,weatherlink.com 1.10,2013-03-15 13:16:00,
2013-03-15 09:31:00,21.3,4.0,29.78,West,277,10.0,20.0,47,0.00,,,0.00,109,weatherlink.com 1.10,2013-03-15 13:31:00,
2013-03-15 09:46:00,22.7,5.0,29.78,WNW,302,9.0,15.0,47,0.00,,,0.00,278,weatherlink.com 1.10,2013-03-15 13:46:00,
2013-03-15 10:01:00,23.8,4.0,29.78,NW,316,13.0,15.0,43,0.00,,,0.00,541,weatherlink.com 1.10,2013-03-15 14:01:00,
2013-03-15 10:16:00,25.3,6.0,29.77,West,281,9.0,15.0,43,0.00,,,0.00,624,weatherlink.com 1.10,2013-03-15 14:16:00,
2013-03-15 10:31:00,26.4,4.0,29.76,NW,306,9.0,12.0,39,0.00,,,0.00,571,weatherlink.com 1.10,2013-03-15 14:31:00,
2013-03-15 10:46:00,26.4,4.0,29.76,West,271,6.0,14.0,38,0.00,,,0.00,462,weatherlink.com 1.10,2013-03-15 14:46:00,
2013-03-15 11:01:00,27.6,5.0,29.75,SW,233,11.0,12.0,38,0.00,,,0.00,550,weatherlink.com 1.10,2013-03-15 15:01:00,
2013-03-15 11:16:00,28.5,5.0,29.75,West,278,7.0,13.0,36,0.00,,,0.00,740,weatherlink.com 1.10,2013-03-15 15:16:00,
2013-03-15 11:31:00,29.1,4.0,29.74,WSW,253,5.0,9.0,34,0.00,,,0.00,387,weatherlink.com 1.10,2013-03-15 15:31:00,
2013-03-15 11:46:00,29.4,3.0,29.73,WNW,300,12.0,15.0,33,0.00,,,0.00,554,weatherlink.com 1.10,2013-03-15 15:46:00,
2013-03-15 12:01:00,31.2,1.0,29.72,WSW,246,14.0,14.0,28,0.00,,,0.00,647,weatherlink.com 1.10,2013-03-15 16:01:00,
2013-03-15 12:17:00,31.8,2.0,29.71,West,263,5.0,16.0,28,0.00,,,0.00,635,weatherlink.com 1.10,2013-03-15 16:17:00,
2013-03-15 12:32:00,32.8,2.0,29.70,WNW,294,12.0,18.0,27,0.00,,,0.00,367,weatherlink.com 1.10,2013-03-15 16:32:00,
2013-03-15 12:47:00,32.9,1.0,29.70,WSW,254,8.0,12.0,26,0.00,,,0.00,782,weatherlink.com 1.10,2013-03-15 16:47:00,
2013-03-15 13:02:00,33.8,3.0,29.69,SW,227,9.0,16.0,27,0.00,,,0.00,448,weatherlink.com 1.10,2013-03-15 17:02:00,
2013-03-15 13:17:00,35.2,3.0,29.68,WNW,287,5.0,15.0,26,0.00,,,0.00,749,weatherlink.com 1.10,2013-03-15 17:17:00,
2013-03-15 13:32:00,35.0,1.0,29.67,SW,235,3.0,18.0,24,0.00,,,0.00,557,weatherlink.com 1.10,2013-03-15 17:32:00,
2013-03-15 13:47:00,36.8,3.0,29.65,West,278,4.0,20.0,24,0.00,,,0.00,744,weatherlink.com 1.10,2013-03-15 17:47:00,
2013-03-15 14:17:00,37.8,5.0,29.63,SW,217,7.0,16.0,25,0.00,,,0.00,707,weatherlink.com 1.10,2013-03-15 18:17:00,
2013-03-15 14:32:00,38.0,6.0,29.62,WSW,243,8.0,24.0,26,0.00,,,0.00,503,weatherlink.com 1.10,2013-03-15 18:32:00,
2013-03-15 14:47:00,37.8,7.0,29.61,West,262,7.0,21.0,28,0.00,,,0.00,496,weatherlink.com 1.10,2013-03-15 18:47:00,
2013-03-15 15:02:00,38.0,7.0,29.61,WSW,257,10.0,15.0,27,0.00,,,0.00,237,weatherlink.com 1.10,2013-03-15 19:02:00,
2013-03-15 15:17:00,38.2,8.0,29.60,WSW,248,11.0,19.0,29,0.00,,,0.00,476,weatherlink.com 1.10,2013-03-15 19:17:00,
2013-03-15 15:32:00,38.6,10.0,29.60,WNW,297,9.0,20.0,30,0.00,,,0.00,538,weatherlink.com 1.10,2013-03-15 19:32:00,
2013-03-15 15:47:00,38.0,13.0,29.59,WSW,242,16.0,22.0,36,0.00,,,0.00,392,weatherlink.com 1.10,2013-03-15 19:47:00,
2013-03-15 16:02:00,36.8,16.0,29.59,WSW,247,9.0,24.0,42,0.00,,,0.00,272,weatherlink.com 1.10,2013-03-15 20:02:00,
2013-03-15 16:17:00,36.2,17.0,29.59,WSW,244,9.0,19.0,45,0.00,,,0.00,250,weatherlink.com 1.10,2013-03-15 20:17:00,
2013-03-15 16:32:00,35.6,18.0,29.58,West,281,11.0,19.0,48,0.00,,,0.00,236,weatherlink.com 1.10,2013-03-15 20:32:00,
2013-03-15 16:47:00,35.8,19.0,29.58,WSW,246,9.0,18.0,50,0.00,,,0.00,206,weatherlink.com 1.10,2013-03-15 20:47:00,
2013-03-15 17:02:00,35.6,19.0,29.57,SW,215,13.0,13.0,52,0.00,,,0.00,109,weatherlink.com 1.10,2013-03-15 21:02:00,
2013-03-15 17:17:00,34.7,19.0,29.57,SSW,209,8.0,20.0,53,0.00,,,0.00,69,weatherlink.com 1.10,2013-03-15 21:17:00,
2013-03-15 17:32:00,34.4,20.0,29.57,SW,221,12.0,20.0,57,0.00,,,0.00,53,weatherlink.com 1.10,2013-03-15 21:32:00,
2013-03-15 17:47:00,33.8,21.0,29.57,SW,226,8.0,22.0,61,0.00,,,0.00,51,weatherlink.com 1.10,2013-03-15 21:47:00,
2013-03-15 18:02:00,33.7,21.0,29.57,SW,231,8.0,18.0,60,0.00,,,0.00,37,weatherlink.com 1.10,2013-03-15 22:02:00,
2013-03-15 18:17:00,33.7,23.0,29.57,SW,216,13.0,23.0,64,0.00,,,0.00,26,weatherlink.com 1.10,2013-03-15 22:17:00,
2013-03-15 18:32:00,33.2,24.0,29.57,WSW,244,9.0,23.0,69,0.00,,,0.00,11,weatherlink.com 1.10,2013-03-15 22:32:00,
2013-03-15 18:47:00,32.8,25.0,29.58,WSW,248,10.0,15.0,73,0.00,,,0.00,5,weatherlink.com 1.10,2013-03-15 22:47:00,
2013-03-15 19:02:00,32.2,26.0,29.57,SW,215,6.0,15.0,78,0.00,,,0.00,0,weatherlink.com 1.10,2013-03-15 23:02:00,
2013-03-15 19:17:00,31.8,26.0,29.57,WSW,246,1.0,9.0,80,0.00,,,0.00,0,weatherlink.com 1.10,2013-03-15 23:17:00,
2013-03-15 19:32:00,31.5,27.0,29.58,SSW,209,0.0,9.0,83,0.00,,,0.00,0,weatherlink.com 1.10,2013-03-15 23:32:00,
2013-03-15 20:02:00,30.9,27.0,29.57,SSW,203,4.0,11.0,85,0.00,,,0.00,0,weatherlink.com 1.10,2013-03-16 00:02:00,
2013-03-15 20:17:00,30.9,27.0,29.57,SW,226,4.0,11.0,86,0.00,,,0.00,0,weatherlink.com 1.10,2013-03-16 00:17:00,
2013-03-15 20:32:00,31.0,27.0,29.57,SW,230,6.0,12.0,86,0.00,,,0.00,0,weatherlink.com 1.10,2013-03-16 00:32:00,
2013-03-15 20:47:00,31.0,28.0,29.57,WSW,238,4.0,9.0,87,0.00,,,0.00,0,weatherlink.com 1.10,2013-03-16 00:47:00,
2013-03-15 21:02:00,30.9,28.0,29.57,SW,227,6.0,13.0,87,0.00,,,0.00,0,weatherlink.com 1.10,2013-03-16 01:02:00,
2013-03-15 21:17:00,30.7,27.0,29.57,WSW,248,6.0,12.0,87,0.00,,,0.00,0,weatherlink.com 1.10,2013-03-16 01:17:00,
2013-03-15 21:32:00,30.6,28.0,29.57,SW,224,4.0,13.0,88,0.00,,,0.00,0,weatherlink.com 1.10,2013-03-16 01:32:00,
2013-03-15 21:47:00,30.7,28.0,29.57,WSW,240,8.0,12.0,89,0.00,,,0.00,0,weatherlink.com 1.10,2013-03-16 01:47:00,
2013-03-15 22:02:00,30.4,27.0,29.57,WSW,238,5.0,11.0,88,0.00,,,0.00,0,weatherlink.com 1.10,2013-03-16 02:02:00,
2013-03-15 22:17:00,30.3,27.0,29.57,WSW,247,8.0,11.0,88,0.00,,,0.00,0,weatherlink.com 1.10,2013-03-16 02:17:00,
2013-03-15 22:32:00,30.0,27.0,29.57,WSW,249,13.0,13.0,88,0.00,,,0.00,0,weatherlink.com 1.10,2013-03-16 02:32:00,
2013-03-15 22:47:00,30.0,26.0,29.57,West,267,13.0,19.0,86,0.00,,,0.00,0,weatherlink.com 1.10,2013-03-16 02:47:00,
2013-03-15 23:02:00,30.3,26.0,29.57,SSW,209,10.0,23.0,83,0.00,,,0.00,0,weatherlink.com 1.10,2013-03-16 03:02:00,
2013-03-15 23:17:00,30.6,25.0,29.58,WSW,250,20.0,22.0,78,0.00,,,0.00,0,weatherlink.com 1.10,2013-03-16 03:17:00,
2013-03-15 23:33:00,31.2,25.0,29.60,NW,315,7.0,24.0,78,0.00,,,0.00,0,weatherlink.com 1.10,2013-03-16 03:33:00,
2013-03-15 23:47:00,30.7,25.0,29.61,NW,320,10.0,22.0,80,0.00,,,0.00,0,weatherlink.com 1.10,2013-03-16 03:47:00,